createdAt,value
2022-10-18T00:05:23.780Z,22.62
2022-10-18T00:15:30.942Z,18.57
2022-10-18T00:25:38.241Z,17.05
2022-10-18T00:35:44.958Z,18.53
2022-10-18T00:45:51.698Z,18.13
2022-10-18T00:55:59.054Z,17.9
2022-10-18T01:06:08.909Z,23.48
2022-10-18T01:16:16.724Z,24.29
2022-10-18T01:26:24.303Z,25.2
2022-10-18T01:36:31.937Z,24.95
2022-10-18T01:46:42.351Z,22.74
2022-10-18T01:56:40.520Z,22.55
2022-10-18T02:06:48.143Z,24.46
2022-10-18T02:16:55.768Z,24.65
2022-10-18T02:27:03.435Z,24.95
2022-10-18T02:37:11.067Z,27.88
2022-10-18T02:47:18.562Z,26.56
2022-10-18T02:57:26.186Z,24.19
2022-10-18T03:07:38.397Z,24.8
2022-10-18T03:17:37.421Z,21.13
2022-10-18T03:27:46.436Z,21.49
2022-10-18T03:37:55.500Z,21.67
2022-10-18T03:48:04.524Z,21.24
2022-10-18T03:58:13.586Z,19.47
2022-10-18T04:08:22.500Z,21.92
2022-10-18T04:18:31.553Z,18.9
2022-10-18T04:28:33.699Z,19.07
2022-10-18T04:38:42.693Z,27.6
2022-10-18T04:48:51.760Z,24.14
2022-10-18T04:59:00.834Z,21.56
2022-10-18T05:09:09.826Z,22.5
2022-10-18T05:19:18.948Z,24.69
2022-10-18T05:29:36.216Z,22.83
2022-10-18T05:39:37.203Z,27.88
2022-10-18T05:49:36.326Z,29.11
2022-10-18T05:59:47.460Z,26.93
2022-10-18T06:09:46.244Z,24.76
2022-10-18T06:19:56.436Z,23.62
2022-10-18T06:29:55.622Z,22.49
2022-10-18T06:40:05.807Z,24.07
2022-10-18T06:50:04.931Z,27.34
2022-10-18T07:00:14.079Z,25.76
2022-10-18T07:10:23.104Z,28.99
2022-10-18T07:20:32.082Z,37.99
2022-10-18T07:30:41.127Z,26.93
2022-10-18T07:40:50.548Z,23.36
2022-10-18T07:51:00.255Z,25.81
2022-10-18T08:01:01.089Z,23.29
2022-10-18T08:11:01.229Z,31.86
2022-10-18T08:31:12.900Z,27.92
2022-10-18T08:41:21.647Z,37.56
2022-10-18T08:51:31.528Z,32.92
2022-10-18T09:01:43.294Z,32.85
2022-10-18T09:11:50.749Z,42.8
2022-10-18T09:32:16.091Z,46.68
2022-10-18T09:41:45.247Z,29.19
2022-10-18T09:51:54.254Z,41.51
2022-10-18T10:12:05.609Z,19.52
2022-10-18T10:22:42.158Z,22.49
2022-10-18T10:32:21.313Z,22.39
2022-10-18T10:52:31.758Z,21.47
2022-10-18T11:02:40.844Z,24.29
2022-10-18T11:12:49.348Z,24.63
2022-10-18T11:22:58.413Z,20.64
2022-10-18T11:33:08.468Z,20.87
2022-10-18T11:43:07.517Z,20.93
2022-10-18T11:53:16.576Z,24.49
2022-10-18T12:03:25.634Z,25.72
2022-10-18T12:13:34.950Z,22.98
2022-10-18T12:23:39.166Z,25.72
2022-10-18T12:33:38.171Z,26.25
2022-10-18T12:43:50.160Z,26.12
2022-10-18T12:53:52.393Z,25.01
2022-10-18T13:03:52.294Z,27.21
2022-10-18T13:14:08.852Z,27.26
2022-10-18T13:23:59.895Z,27.11
2022-10-18T13:34:00.233Z,23.56
2022-10-18T13:44:06.518Z,28.01
2022-10-18T13:54:07.914Z,27.82
2022-10-18T14:04:07.114Z,27.75
2022-10-18T14:14:16.200Z,23.32
2022-10-18T14:24:25.441Z,26.72
2022-10-18T14:34:34.566Z,24.94
2022-10-18T14:44:43.674Z,31.61
2022-10-18T15:24:59.487Z,24.63
2022-10-18T15:45:10.671Z,21.96
2022-10-18T16:05:21.953Z,27.15
2022-10-18T16:15:30.887Z,25.8
2022-10-18T16:25:31.140Z,25.96
2022-10-18T16:35:41.898Z,23.48
2022-10-18T16:45:40.956Z,29.54
2022-10-18T16:55:50.056Z,28.71
2022-10-18T17:06:02.821Z,29.93
2022-10-18T17:16:01.946Z,25.29
2022-10-18T17:26:27.604Z,26.27
2022-10-18T17:36:18.169Z,28.67
2022-10-18T17:46:28.176Z,31.17
2022-10-18T17:56:33.325Z,33.86
2022-10-18T18:06:33.671Z,30.24
2022-10-18T18:16:35.108Z,32.21
2022-10-18T18:26:44.445Z,29.33
2022-10-18T18:36:53.553Z,35.77
2022-10-18T18:47:03.268Z,31.33
2022-10-18T18:57:13.125Z,30.32
2022-10-18T19:07:15.359Z,29.65
2022-10-18T19:17:17.293Z,27.72
2022-10-18T19:27:28.982Z,31.04
2022-10-18T19:37:18.052Z,35.76
2022-10-18T19:47:26.960Z,28.09
2022-10-18T19:57:44.909Z,32.36
2022-10-18T20:07:46.579Z,28.91
2022-10-18T20:27:49.531Z,26.2
2022-10-18T20:37:48.717Z,29.91
2022-10-18T20:47:49.358Z,29.91
2022-10-18T20:57:58.486Z,28.96
2022-10-18T21:08:12.770Z,30.2
2022-10-18T21:18:15.764Z,32.74
2022-10-18T21:28:16.606Z,33.38
2022-10-18T21:38:25.568Z,31.29
2022-10-18T21:48:34.575Z,28.29
2022-10-18T21:58:43.529Z,36.65
2022-10-18T22:08:52.438Z,32.6
2022-10-18T22:19:01.433Z,30.92
2022-10-18T22:29:10.356Z,30.86
2022-10-18T22:39:19.146Z,29.72
2022-10-18T22:49:28.138Z,30.8
2022-10-18T22:59:37.146Z,30.96
2022-10-18T23:09:37.264Z,32.16
2022-10-18T23:19:45.500Z,32.75
2022-10-18T23:29:54.391Z,35.16
2022-10-18T23:40:03.402Z,29.57
2022-10-18T23:50:12.301Z,30.64
